sensor_id;sensor_type;location;lat;lon;timestamp;pressure;altitude;pressure_sealevel;temperature;humidity
74905;BME280;63465;50.862;6.220;2023-08-21T00:01:01;100557.03;;;20.26;100.00
74905;BME280;63465;50.862;6.220;2023-08-21T00:03:26;100556.50;;;20.21;100.00
74905;BME280;63465;50.862;6.220;2023-08-21T00:05:51;100555.50;;;20.11;100.00
74905;BME280;63465;50.862;6.220;2023-08-21T00:08:17;100552.78;;;20.11;100.00
74905;BME280;63465;50.862;6.220;2023-08-21T00:10:42;100549.19;;;20.35;100.00
74905;BME280;63465;50.862;6.220;2023-08-21T00:13:08;100552.09;;;20.20;100.00
74905;BME280;63465;50.862;6.220;2023-08-21T00:15:33;100550.28;;;20.32;100.00
74905;BME280;63465;50.862;6.220;2023-08-21T00:17:58;100547.28;;;20.48;100.00
74905;BME280;63465;50.862;6.220;2023-08-21T00:20:25;100551.97;;;20.22;100.00
74905;BME280;63465;50.862;6.220;2023-08-21T00:22:51;100547.13;;;20.74;100.00
74905;BME280;63465;50.862;6.220;2023-08-21T00:25:16;100540.97;;;20.72;100.00
74905;BME280;63465;50.862;6.220;2023-08-21T00:27:41;100547.28;;;20.48;100.00
74905;BME280;63465;50.862;6.220;2023-08-21T00:30:07;100541.13;;;20.10;100.00
74905;BME280;63465;50.862;6.220;2023-08-21T00:32:32;100540.44;;;20.20;100.00
74905;BME280;63465;50.862;6.220;2023-08-21T00:34:58;100547.91;;;20.16;100.00
74905;BME280;63465;50.862;6.220;2023-08-21T00:37:23;100539.56;;;20.08;100.00
74905;BME280;63465;50.862;6.220;2023-08-21T00:39:48;100548.09;;;20.02;100.00
74905;BME280;63465;50.862;6.220;2023-08-21T00:42:14;100540.94;;;19.89;100.00
74905;BME280;63465;50.862;6.220;2023-08-21T00:44:39;100540.19;;;19.87;100.00
74905;BME280;63465;50.862;6.220;2023-08-21T00:47:04;100534.16;;;19.84;100.00
74905;BME280;63465;50.862;6.220;2023-08-21T00:49:30;100538.59;;;19.72;100.00
74905;BME280;63465;50.862;6.220;2023-08-21T00:51:56;100537.47;;;19.87;100.00
74905;BME280;63465;50.862;6.220;2023-08-21T00:54:21;100540.94;;;19.89;100.00
74905;BME280;63465;50.862;6.220;2023-08-21T00:56:47;100533.09;;;19.86;100.00
74905;BME280;63465;50.862;6.220;2023-08-21T00:59:12;100525.22;;;20.07;100.00
74905;BME280;63465;50.862;6.220;2023-08-21T01:01:38;100529.47;;;20.34;100.00
74905;BME280;63465;50.862;6.220;2023-08-21T01:04:05;100530.31;;;20.35;100.00
74905;BME280;63465;50.862;6.220;2023-08-21T01:06:30;100529.63;;;20.08;100.00
74905;BME280;63465;50.862;6.220;2023-08-21T01:16:47;100542.47;;;19.68;100.00
74905;BME280;63465;50.862;6.220;2023-08-21T01:19:31;100547.75;;;19.69;100.00
74905;BME280;63465;50.862;6.220;2023-08-21T01:22:00;100542.19;;;19.59;100.00
74905;BME280;63465;50.862;6.220;2023-08-21T01:24:26;100553.25;;;19.31;100.00
74905;BME280;63465;50.862;6.220;2023-08-21T01:26:51;100549.75;;;19.17;100.00
74905;BME280;63465;50.862;6.220;2023-08-21T01:29:16;100551.44;;;19.18;100.00
74905;BME280;63465;50.862;6.220;2023-08-21T01:31:45;100551.00;;;19.24;100.00
74905;BME280;63465;50.862;6.220;2023-08-21T01:34:13;100551.31;;;19.33;100.00
74905;BME280;63465;50.862;6.220;2023-08-21T01:36:39;100555.38;;;19.38;100.00
74905;BME280;63465;50.862;6.220;2023-08-21T01:39:05;100548.63;;;19.33;100.00
74905;BME280;63465;50.862;6.220;2023-08-21T01:41:31;100550.56;;;19.31;100.00
74905;BME280;63465;50.862;6.220;2023-08-21T01:43:56;100559.47;;;19.44;100.00
74905;BME280;63465;50.862;6.220;2023-08-21T01:46:22;100554.34;;;19.28;100.00
74905;BME280;63465;50.862;6.220;2023-08-21T01:48:47;100557.16;;;19.27;100.00
74905;BME280;63465;50.862;6.220;2023-08-21T01:51:12;100560.81;;;19.25;100.00
74905;BME280;63465;50.862;6.220;2023-08-21T01:53:37;100550.66;;;19.42;100.00
74905;BME280;63465;50.862;6.220;2023-08-21T01:56:03;100551.66;;;19.28;100.00
74905;BME280;63465;50.862;6.220;2023-08-21T01:58:28;100556.94;;;19.17;100.00
74905;BME280;63465;50.862;6.220;2023-08-21T02:00:53;100552.75;;;19.13;100.00
74905;BME280;63465;50.862;6.220;2023-08-21T02:03:19;100555.00;;;19.19;100.00
74905;BME280;63465;50.862;6.220;2023-08-21T02:05:44;100551.09;;;19.23;100.00
74905;BME280;63465;50.862;6.220;2023-08-21T02:08:13;100555.59;;;19.35;100.00
74905;BME280;63465;50.862;6.220;2023-08-21T02:10:51;100551.53;;;19.30;100.00
74905;BME280;63465;50.862;6.220;2023-08-21T02:13:18;100546.16;;;19.30;100.00
74905;BME280;63465;50.862;6.220;2023-08-21T02:15:43;100554.00;;;19.20;100.00
74905;BME280;63465;50.862;6.220;2023-08-21T02:18:09;100544.88;;;19.22;100.00
74905;BME280;63465;50.862;6.220;2023-08-21T02:20:34;100547.47;;;19.24;100.00
74905;BME280;63465;50.862;6.220;2023-08-21T02:22:59;100553.38;;;19.16;100.00
74905;BME280;63465;50.862;6.220;2023-08-21T02:25:25;100555.97;;;19.18;100.00
74905;BME280;63465;50.862;6.220;2023-08-21T02:27:50;100546.16;;;19.30;100.00
74905;BME280;63465;50.862;6.220;2023-08-21T02:30:15;100550.09;;;19.50;100.00
74905;BME280;63465;50.862;6.220;2023-08-21T02:32:40;100555.09;;;19.30;100.00
74905;BME280;63465;50.862;6.220;2023-08-21T02:35:07;100550.66;;;19.29;100.00
74905;BME280;63465;50.862;6.220;2023-08-21T02:37:33;100548.31;;;19.24;100.00
74905;BME280;63465;50.862;6.220;2023-08-21T02:39:58;100555.94;;;19.43;100.00
74905;BME280;63465;50.862;6.220;2023-08-21T02:42:25;100556.66;;;19.46;100.00
74905;BME280;63465;50.862;6.220;2023-08-21T02:44:50;100564.41;;;19.50;100.00
74905;BME280;63465;50.862;6.220;2023-08-21T02:47:15;100556.63;;;19.58;100.00
74905;BME280;63465;50.862;6.220;2023-08-21T02:49:40;100554.88;;;19.83;100.00
74905;BME280;63465;50.862;6.220;2023-08-21T02:52:06;100546.44;;;19.75;100.00
74905;BME280;63465;50.862;6.220;2023-08-21T02:54:31;100542.47;;;19.68;100.00
74905;BME280;63465;50.862;6.220;2023-08-21T02:56:56;100537.41;;;19.76;100.00
74905;BME280;63465;50.862;6.220;2023-08-21T02:59:21;100542.88;;;19.87;100.00
74905;BME280;63465;50.862;6.220;2023-08-21T03:01:47;100550.50;;;19.56;100.00
74905;BME280;63465;50.862;6.220;2023-08-21T03:04:13;100546.81;;;19.20;100.00
74905;BME280;63465;50.862;6.220;2023-08-21T03:06:38;100554.38;;;19.52;100.00
74905;BME280;63465;50.862;6.220;2023-08-21T03:09:03;100553.56;;;19.39;100.00
74905;BME280;63465;50.862;6.220;2023-08-21T03:11:29;100549.91;;;19.27;100.00
74905;BME280;63465;50.862;6.220;2023-08-21T03:13:54;100557.06;;;19.52;100.00
74905;BME280;63465;50.862;6.220;2023-08-21T03:16:19;100543.88;;;19.86;100.00
74905;BME280;63465;50.862;6.220;2023-08-21T03:18:59;100532.88;;;19.89;100.00
74905;BME280;63465;50.862;6.220;2023-08-21T03:21:25;100538.75;;;19.57;100.00
74905;BME280;63465;50.862;6.220;2023-08-21T03:23:55;100539.00;;;19.54;100.00
74905;BME280;63465;50.862;6.220;2023-08-21T03:26:21;100539.06;;;19.66;100.00
74905;BME280;63465;50.862;6.220;2023-08-21T03:28:46;100534.06;;;19.35;100.00
74905;BME280;63465;50.862;6.220;2023-08-21T03:31:12;100534.41;;;19.31;100.00
74905;BME280;63465;50.862;6.220;2023-08-21T03:33:37;100540.34;;;19.36;100.00
74905;BME280;63465;50.862;6.220;2023-08-21T03:36:02;100528.50;;;19.25;100.00
74905;BME280;63465;50.862;6.220;2023-08-21T03:38:28;100529.13;;;19.42;100.00
74905;BME280;63465;50.862;6.220;2023-08-21T03:40:53;100526.78;;;19.24;100.00
74905;BME280;63465;50.862;6.220;2023-08-21T03:43:18;100529.69;;;19.58;100.00
74905;BME280;63465;50.862;6.220;2023-08-21T03:45:44;100532.50;;;19.33;100.00
74905;BME280;63465;50.862;6.220;2023-08-21T03:48:09;100533.94;;;19.50;100.00
74905;BME280;63465;50.862;6.220;2023-08-21T03:50:34;100526.69;;;19.13;100.00
74905;BME280;63465;50.862;6.220;2023-08-21T03:52:59;100538.22;;;18.64;100.00
74905;BME280;63465;50.862;6.220;2023-08-21T03:55:25;100537.13;;;18.53;100.00
74905;BME280;63465;50.862;6.220;2023-08-21T03:57:50;100541.13;;;18.61;100.00
74905;BME280;63465;50.862;6.220;2023-08-21T04:00:15;100535.66;;;19.01;100.00
74905;BME280;63465;50.862;6.220;2023-08-21T04:02:41;100540.22;;;19.24;100.00
74905;BME280;63465;50.862;6.220;2023-08-21T04:05:07;100541.53;;;18.80;100.00
74905;BME280;63465;50.862;6.220;2023-08-21T04:07:32;100544.22;;;18.80;100.00
74905;BME280;63465;50.862;6.220;2023-08-21T04:09:57;100535.63;;;18.75;100.00
74905;BME280;63465;50.862;6.220;2023-08-21T04:12:23;100548.63;;;18.81;100.00
74905;BME280;63465;50.862;6.220;2023-08-21T04:14:48;100544.97;;;19.08;100.00
74905;BME280;63465;50.862;6.220;2023-08-21T04:17:13;100553.13;;;18.68;100.00
74905;BME280;63465;50.862;6.220;2023-08-21T04:19:38;100559.16;;;18.59;100.00
74905;BME280;63465;50.862;6.220;2023-08-21T04:22:06;100558.63;;;18.53;100.00
74905;BME280;63465;50.862;6.220;2023-08-21T04:24:31;100562.19;;;18.67;100.00
74905;BME280;63465;50.862;6.220;2023-08-21T04:26:56;100564.66;;;18.70;100.00
74905;BME280;63465;50.862;6.220;2023-08-21T04:29:22;100571.38;;;18.90;100.00
74905;BME280;63465;50.862;6.220;2023-08-21T04:31:48;100574.06;;;18.90;100.00
74905;BME280;63465;50.862;6.220;2023-08-21T04:34:13;100568.78;;;18.88;100.00
74905;BME280;63465;50.862;6.220;2023-08-21T04:36:39;100565.78;;;18.93;100.00
74905;BME280;63465;50.862;6.220;2023-08-21T04:39:04;100574.38;;;18.85;100.00
74905;BME280;63465;50.862;6.220;2023-08-21T04:41:30;100585.97;;;18.73;100.00
74905;BME280;63465;50.862;6.220;2023-08-21T04:43:55;100580.03;;;18.68;100.00
74905;BME280;63465;50.862;6.220;2023-08-21T04:46:20;100588.00;;;18.82;100.00
74905;BME280;63465;50.862;6.220;2023-08-21T04:48:46;100593.34;;;18.69;100.00
74905;BME280;63465;50.862;6.220;2023-08-21T04:51:11;100598.41;;;18.74;100.00
74905;BME280;63465;50.862;6.220;2023-08-21T04:53:37;100593.28;;;18.84;100.00
74905;BME280;63465;50.862;6.220;2023-08-21T04:56:02;100595.47;;;18.92;100.00
74905;BME280;63465;50.862;6.220;2023-08-21T04:58:28;100587.94;;;18.97;100.00
74905;BME280;63465;50.862;6.220;2023-08-21T05:00:54;100594.88;;;18.74;100.00
74905;BME280;63465;50.862;6.220;2023-08-21T05:03:19;100597.59;;;18.86;100.00
74905;BME280;63465;50.862;6.220;2023-08-21T05:05:54;100605.53;;;18.75;100.00
74905;BME280;63465;50.862;6.220;2023-08-21T05:08:21;100589.88;;;18.95;100.00
74905;BME280;63465;50.862;6.220;2023-08-21T05:10:46;100590.91;;;19.31;100.00
74905;BME280;63465;50.862;6.220;2023-08-21T05:13:11;100586.22;;;19.09;100.00
74905;BME280;63465;50.862;6.220;2023-08-21T05:15:37;100593.59;;;19.31;100.00
74905;BME280;63465;50.862;6.220;2023-08-21T05:18:02;100595.56;;;18.90;100.00
74905;BME280;63465;50.862;6.220;2023-08-21T05:20:28;100590.06;;;19.04;100.00
74905;BME280;63465;50.862;6.220;2023-08-21T05:22:53;100601.06;;;18.88;100.00
74905;BME280;63465;50.862;6.220;2023-08-21T05:25:18;100603.75;;;18.88;100.00
74905;BME280;63465;50.862;6.220;2023-08-21T05:27:43;100605.81;;;18.98;100.00
74905;BME280;63465;50.862;6.220;2023-08-21T05:30:09;100600.41;;;19.11;100.00
74905;BME280;63465;50.862;6.220;2023-08-21T05:32:36;100601.50;;;19.21;100.00
74905;BME280;63465;50.862;6.220;2023-08-21T05:35:01;100601.94;;;19.15;100.00
74905;BME280;63465;50.862;6.220;2023-08-21T05:37:26;100600.59;;;19.46;100.00
74905;BME280;63465;50.862;6.220;2023-08-21T05:39:52;100598.44;;;19.38;100.00
74905;BME280;63465;50.862;6.220;2023-08-21T05:42:17;100596.78;;;19.61;100.00
74905;BME280;63465;50.862;6.220;2023-08-21T05:44:42;100605.34;;;19.42;100.00
74905;BME280;63465;50.862;6.220;2023-08-21T05:47:08;100606.84;;;19.47;100.00
74905;BME280;63465;50.862;6.220;2023-08-21T05:49:33;100608.78;;;19.45;100.00
74905;BME280;63465;50.862;6.220;2023-08-21T05:51:58;100602.16;;;19.61;100.00
74905;BME280;63465;50.862;6.220;2023-08-21T05:54:25;100612.81;;;19.63;100.00
74905;BME280;63465;50.862;6.220;2023-08-21T05:56:50;100613.59;;;19.52;100.00
74905;BME280;63465;50.862;6.220;2023-08-21T05:59:35;100619.19;;;19.49;100.00
74905;BME280;63465;50.862;6.220;2023-08-21T06:02:00;100606.41;;;19.53;100.00
74905;BME280;63465;50.862;6.220;2023-08-21T06:04:26;100615.50;;;19.76;100.00
74905;BME280;63465;50.862;6.220;2023-08-21T06:06:52;100613.34;;;19.81;100.00
74905;BME280;63465;50.862;6.220;2023-08-21T06:09:18;100615.19;;;19.81;100.00
74905;BME280;63465;50.862;6.220;2023-08-21T06:11:43;100621.84;;;19.75;100.00
74905;BME280;63465;50.862;6.220;2023-08-21T06:14:08;100618.16;;;20.02;100.00
74905;BME280;63465;50.862;6.220;2023-08-21T06:16:34;100623.78;;;19.86;100.00
74905;BME280;63465;50.862;6.220;2023-08-21T06:18:59;100609.97;;;19.90;100.00
74905;BME280;63465;50.862;6.220;2023-08-21T06:21:24;100620.59;;;19.81;100.00
74905;BME280;63465;50.862;6.220;2023-08-21T06:23:50;100628.41;;;20.21;100.00
74905;BME280;63465;50.862;6.220;2023-08-21T06:26:15;100624.44;;;20.13;100.00
74905;BME280;63465;50.862;6.220;2023-08-21T06:28:40;100628.06;;;20.25;100.00
74905;BME280;63465;50.862;6.220;2023-08-21T06:31:08;100619.84;;;20.27;100.00
74905;BME280;63465;50.862;6.220;2023-08-21T06:33:34;100615.22;;;20.05;100.00
74905;BME280;63465;50.862;6.220;2023-08-21T06:35:59;100618.59;;;20.20;100.00
74905;BME280;63465;50.862;6.220;2023-08-21T06:38:24;100619.47;;;20.20;100.00
74905;BME280;63465;50.862;6.220;2023-08-21T06:40:50;100620.78;;;20.14;100.00
74905;BME280;63465;50.862;6.220;2023-08-21T06:43:16;100619.97;;;20.25;100.00
74905;BME280;63465;50.862;6.220;2023-08-21T06:45:42;100617.84;;;20.42;100.00
74905;BME280;63465;50.862;6.220;2023-08-21T06:48:07;100620.94;;;20.48;100.00
74905;BME280;63465;50.862;6.220;2023-08-21T06:52:30;100626.16;;;20.63;100.00
74905;BME280;63465;50.862;6.220;2023-08-21T06:54:55;100629.13;;;20.47;100.00
74905;BME280;63465;50.862;6.220;2023-08-21T06:57:20;100635.19;;;20.86;100.00
74905;BME280;63465;50.862;6.220;2023-08-21T06:59:46;100631.97;;;20.81;100.00
74905;BME280;63465;50.862;6.220;2023-08-21T07:02:11;100634.91;;;20.78;100.00
74905;BME280;63465;50.862;6.220;2023-08-21T07:04:36;100634.72;;;20.92;100.00
74905;BME280;63465;50.862;6.220;2023-08-21T07:07:02;100629.63;;;21.12;100.00
74905;BME280;63465;50.862;6.220;2023-08-21T07:09:27;100631.53;;;21.10;100.00
74905;BME280;63465;50.862;6.220;2023-08-21T07:11:52;100635.25;;;21.09;100.00
74905;BME280;63465;50.862;6.220;2023-08-21T07:14:19;100634.97;;;20.89;100.00
74905;BME280;63465;50.862;6.220;2023-08-21T07:16:44;100640.41;;;21.12;100.00
74905;BME280;63465;50.862;6.220;2023-08-21T07:19:09;100645.44;;;21.16;100.00
74905;BME280;63465;50.862;6.220;2023-08-21T07:21:35;100637.81;;;21.22;100.00
74905;BME280;63465;50.862;6.220;2023-08-21T07:24:04;100643.94;;;21.12;100.00
74905;BME280;63465;50.862;6.220;2023-08-21T07:26:30;100642.00;;;21.26;100.00
74905;BME280;63465;50.862;6.220;2023-08-21T07:28:55;100641.53;;;21.32;100.00
74905;BME280;63465;50.862;6.220;2023-08-21T07:31:20;100650.00;;;21.38;100.00
74905;BME280;63465;50.862;6.220;2023-08-21T07:33:46;100647.31;;;21.50;100.00
74905;BME280;63465;50.862;6.220;2023-08-21T07:36:11;100647.78;;;21.32;100.00
74905;BME280;63465;50.862;6.220;2023-08-21T07:38:42;100651.09;;;21.36;100.00
74905;BME280;63465;50.862;6.220;2023-08-21T07:41:09;100650.72;;;21.41;100.00
74905;BME280;63465;50.862;6.220;2023-08-21T07:43:35;100643.22;;;21.33;100.00
74905;BME280;63465;50.862;6.220;2023-08-21T07:46:05;100647.56;;;21.69;100.00
74905;BME280;63465;50.862;6.220;2023-08-21T07:48:30;100642.84;;;22.05;100.00
74905;BME280;63465;50.862;6.220;2023-08-21T07:50:56;100644.38;;;21.76;100.00
74905;BME280;63465;50.862;6.220;2023-08-21T07:53:22;100639.34;;;21.71;100.00
74905;BME280;63465;50.862;6.220;2023-08-21T07:55:47;100636.44;;;22.06;100.00
74905;BME280;63465;50.862;6.220;2023-08-21T07:58:13;100634.50;;;22.08;100.00
74905;BME280;63465;50.862;6.220;2023-08-21T08:00:38;100644.47;;;21.74;100.00
74905;BME280;63465;50.862;6.220;2023-08-21T08:03:08;100641.19;;;22.37;100.00
74905;BME280;63465;50.862;6.220;2023-08-21T08:05:34;100639.13;;;22.18;100.00
74905;BME280;63465;50.862;6.220;2023-08-21T08:07:59;100641.16;;;22.48;100.00
74905;BME280;63465;50.862;6.220;2023-08-21T08:10:24;100643.59;;;22.72;100.00
74905;BME280;63465;50.862;6.220;2023-08-21T08:12:50;100641.22;;;23.00;100.00
74905;BME280;63465;50.862;6.220;2023-08-21T08:15:16;100632.81;;;23.14;100.00
74905;BME280;63465;50.862;6.220;2023-08-21T08:17:41;100634.31;;;24.10;100.00
74905;BME280;63465;50.862;6.220;2023-08-21T08:20:07;100634.00;;;23.93;100.00
74905;BME280;63465;50.862;6.220;2023-08-21T08:22:32;100637.06;;;24.29;100.00
74905;BME280;63465;50.862;6.220;2023-08-21T08:24:57;100642.38;;;24.50;100.00
74905;BME280;63465;50.862;6.220;2023-08-21T08:27:23;100632.50;;;24.88;100.00
74905;BME280;63465;50.862;6.220;2023-08-21T08:29:49;100635.69;;;23.54;100.00
74905;BME280;63465;50.862;6.220;2023-08-21T08:32:14;100619.75;;;24.01;100.00
74905;BME280;63465;50.862;6.220;2023-08-21T08:34:40;100632.31;;;24.02;100.00
74905;BME280;63465;50.862;6.220;2023-08-21T08:37:05;100646.66;;;24.43;100.00
74905;BME280;63465;50.862;6.220;2023-08-21T08:39:30;100636.63;;;24.92;100.00
74905;BME280;63465;50.862;6.220;2023-08-21T08:42:05;100634.28;;;25.37;100.00
74905;BME280;63465;50.862;6.220;2023-08-21T08:44:34;100635.41;;;25.34;100.00
74905;BME280;63465;50.862;6.220;2023-08-21T08:47:00;100644.06;;;25.10;100.00
74905;BME280;63465;50.862;6.220;2023-08-21T08:49:26;100645.50;;;24.85;100.00
74905;BME280;63465;50.862;6.220;2023-08-21T08:51:51;100646.47;;;25.60;100.00
74905;BME280;63465;50.862;6.220;2023-08-21T08:54:19;100649.97;;;25.43;100.00
74905;BME280;63465;50.862;6.220;2023-08-21T08:56:45;100657.97;;;26.28;100.00
74905;BME280;63465;50.862;6.220;2023-08-21T08:59:10;100653.41;;;26.10;100.00
74905;BME280;63465;50.862;6.220;2023-08-21T09:01:36;100647.25;;;26.26;100.00
74905;BME280;63465;50.862;6.220;2023-08-21T09:04:02;100653.47;;;26.01;100.00
74905;BME280;63465;50.862;6.220;2023-08-21T09:06:28;100642.59;;;26.01;100.00
74905;BME280;63465;50.862;6.220;2023-08-21T09:08:55;100649.44;;;26.77;100.00
74905;BME280;63465;50.862;6.220;2023-08-21T09:11:20;100652.00;;;26.96;100.00
74905;BME280;63465;50.862;6.220;2023-08-21T09:13:49;100641.91;;;27.15;100.00
74905;BME280;63465;50.862;6.220;2023-08-21T09:16:14;100644.19;;;26.57;100.00
74905;BME280;63465;50.862;6.220;2023-08-21T09:18:53;100645.44;;;27.07;97.72
74905;BME280;63465;50.862;6.220;2023-08-21T09:21:20;100643.91;;;26.32;100.00
74905;BME280;63465;50.862;6.220;2023-08-21T09:23:46;100641.31;;;25.67;100.00
74905;BME280;63465;50.862;6.220;2023-08-21T09:26:22;100643.22;;;26.30;100.00
74905;BME280;63465;50.862;6.220;2023-08-21T09:28:49;100643.84;;;26.78;100.00
74905;BME280;63465;50.862;6.220;2023-08-21T09:31:14;100643.34;;;27.01;100.00
74905;BME280;63465;50.862;6.220;2023-08-21T09:33:40;100644.53;;;27.51;100.00
74905;BME280;63465;50.862;6.220;2023-08-21T09:36:06;100648.91;;;27.17;100.00
74905;BME280;63465;50.862;6.220;2023-08-21T09:38:33;100644.31;;;27.18;96.62
74905;BME280;63465;50.862;6.220;2023-08-21T09:41:00;100644.25;;;27.62;93.71
74905;BME280;63465;50.862;6.220;2023-08-21T09:43:26;100642.53;;;27.09;95.34
74905;BME280;63465;50.862;6.220;2023-08-21T09:45:53;100641.97;;;27.49;93.90
74905;BME280;63465;50.862;6.220;2023-08-21T09:48:24;100639.34;;;27.13;100.00
74905;BME280;63465;50.862;6.220;2023-08-21T09:50:52;100641.91;;;27.41;96.55
74905;BME280;63465;50.862;6.220;2023-08-21T09:53:20;100633.19;;;28.15;89.67
74905;BME280;63465;50.862;6.220;2023-08-21T09:55:46;100630.81;;;27.34;91.64
74905;BME280;63465;50.862;6.220;2023-08-21T09:58:13;100640.75;;;27.78;93.48
74905;BME280;63465;50.862;6.220;2023-08-21T10:00:38;100643.47;;;27.78;91.28
74905;BME280;63465;50.862;6.220;2023-08-21T10:03:07;100637.88;;;27.45;93.54
74905;BME280;63465;50.862;6.220;2023-08-21T10:05:37;100632.19;;;27.73;94.48
74905;BME280;63465;50.862;6.220;2023-08-21T10:08:04;100627.22;;;27.60;94.12
74905;BME280;63465;50.862;6.220;2023-08-21T10:10:32;100620.00;;;28.61;89.49
74905;BME280;63465;50.862;6.220;2023-08-21T10:14:53;100618.88;;;29.28;87.43
74905;BME280;63465;50.862;6.220;2023-08-21T10:17:19;100620.97;;;28.35;90.84
74905;BME280;63465;50.862;6.220;2023-08-21T10:19:50;100611.88;;;28.02;90.23
74905;BME280;63465;50.862;6.220;2023-08-21T10:22:36;100627.66;;;27.90;89.14
74905;BME280;63465;50.862;6.220;2023-08-21T10:25:02;100616.69;;;27.73;92.22
74905;BME280;63465;50.862;6.220;2023-08-21T10:27:30;100623.00;;;28.50;88.05
74905;BME280;63465;50.862;6.220;2023-08-21T10:29:59;100621.66;;;28.45;87.09
74905;BME280;63465;50.862;6.220;2023-08-21T10:32:24;100619.25;;;28.26;84.18
74905;BME280;63465;50.862;6.220;2023-08-21T10:37:13;100621.31;;;28.57;87.08
74905;BME280;63465;50.862;6.220;2023-08-21T10:39:40;100618.44;;;28.50;90.42
74905;BME280;63465;50.862;6.220;2023-08-21T10:42:17;100625.94;;;28.89;83.30
74905;BME280;63465;50.862;6.220;2023-08-21T10:47:50;100632.25;;;28.57;85.59
74905;BME280;63465;50.862;6.220;2023-08-21T10:50:16;100624.75;;;28.75;81.87
74905;BME280;63465;50.862;6.220;2023-08-21T10:52:43;100618.06;;;28.94;81.00
74905;BME280;63465;50.862;6.220;2023-08-21T10:55:15;100624.41;;;28.95;81.80
74905;BME280;63465;50.862;6.220;2023-08-21T10:57:41;100614.06;;;29.38;78.68
74905;BME280;63465;50.862;6.220;2023-08-21T11:02:23;100619.09;;;28.44;85.96
74905;BME280;63465;50.862;6.220;2023-08-21T11:04:50;100619.91;;;28.20;83.69
74905;BME280;63465;50.862;6.220;2023-08-21T11:07:15;100624.06;;;28.65;85.93
74905;BME280;63465;50.862;6.220;2023-08-21T11:09:41;100627.13;;;27.44;94.31
74905;BME280;63465;50.862;6.220;2023-08-21T11:12:13;100620.75;;;28.28;85.57
74905;BME280;63465;50.862;6.220;2023-08-21T11:14:39;100617.75;;;28.64;88.36
74905;BME280;63465;50.862;6.220;2023-08-21T11:20:06;100624.66;;;28.09;81.96
74905;BME280;63465;50.862;6.220;2023-08-21T11:22:33;100634.25;;;27.79;82.30
74905;BME280;63465;50.862;6.220;2023-08-21T11:26:06;100626.44;;;28.93;76.81
74905;BME280;63465;50.862;6.220;2023-08-21T11:28:32;100627.13;;;29.11;75.86
74905;BME280;63465;50.862;6.220;2023-08-21T11:30:58;100629.13;;;28.19;79.41
74905;BME280;63465;50.862;6.220;2023-08-21T11:33:25;100632.47;;;27.96;80.04
74905;BME280;63465;50.862;6.220;2023-08-21T11:35:51;100639.25;;;28.68;80.02
74905;BME280;63465;50.862;6.220;2023-08-21T11:38:22;100638.88;;;28.46;78.81
74905;BME280;63465;50.862;6.220;2023-08-21T11:40:59;100634.13;;;29.22;70.18
74905;BME280;63465;50.862;6.220;2023-08-21T11:43:39;100638.72;;;28.56;77.43
74905;BME280;63465;50.862;6.220;2023-08-21T11:46:05;100635.56;;;27.67;79.58
74905;BME280;63465;50.862;6.220;2023-08-21T11:48:32;100637.00;;;28.38;74.76
74905;BME280;63465;50.862;6.220;2023-08-21T11:50:57;100632.75;;;29.10;69.49
74905;BME280;63465;50.862;6.220;2023-08-21T11:53:36;100629.03;;;28.78;69.51
74905;BME280;63465;50.862;6.220;2023-08-21T11:56:03;100629.53;;;28.98;70.09
74905;BME280;63465;50.862;6.220;2023-08-21T11:58:37;100618.72;;;28.39;78.56
74905;BME280;63465;50.862;6.220;2023-08-21T12:01:04;100627.56;;;29.40;70.03
74905;BME280;63465;50.862;6.220;2023-08-21T12:03:29;100611.06;;;29.08;68.67
74905;BME280;63465;50.862;6.220;2023-08-21T12:05:55;100617.81;;;30.16;65.01
74905;BME280;63465;50.862;6.220;2023-08-21T12:08:21;100612.41;;;30.08;62.23
74905;BME280;63465;50.862;6.220;2023-08-21T12:10:50;100619.16;;;29.97;64.03
74905;BME280;63465;50.862;6.220;2023-08-21T12:13:15;100616.00;;;30.32;56.68
74905;BME280;63465;50.862;6.220;2023-08-21T12:15:41;100616.94;;;29.53;66.05
74905;BME280;63465;50.862;6.220;2023-08-21T12:18:06;100611.88;;;29.73;60.82
74905;BME280;63465;50.862;6.220;2023-08-21T12:20:31;100601.66;;;28.94;66.50
74905;BME280;63465;50.862;6.220;2023-08-21T12:22:57;100604.78;;;28.67;73.00
74905;BME280;63465;50.862;6.220;2023-08-21T12:25:23;100607.69;;;28.65;66.90
74905;BME280;63465;50.862;6.220;2023-08-21T12:27:49;100600.69;;;27.87;73.00
74905;BME280;63465;50.862;6.220;2023-08-21T12:30:14;100595.63;;;27.49;77.55
74905;BME280;63465;50.862;6.220;2023-08-21T12:32:39;100596.41;;;28.35;75.72
74905;BME280;63465;50.862;6.220;2023-08-21T12:35:06;100598.56;;;27.64;77.75
74905;BME280;63465;50.862;6.220;2023-08-21T12:37:31;100598.28;;;27.07;73.94
74905;BME280;63465;50.862;6.220;2023-08-21T12:39:57;100596.69;;;28.07;75.66
74905;BME280;63465;50.862;6.220;2023-08-21T12:42:22;100595.53;;;28.26;75.13
74905;BME280;63465;50.862;6.220;2023-08-21T12:44:47;100591.28;;;28.32;74.52
74905;BME280;63465;50.862;6.220;2023-08-21T12:47:12;100591.44;;;28.88;69.26
74905;BME280;63465;50.862;6.220;2023-08-21T12:49:38;100594.66;;;28.09;67.31
74905;BME280;63465;50.862;6.220;2023-08-21T12:52:03;100599.13;;;28.35;66.64
74905;BME280;63465;50.862;6.220;2023-08-21T12:54:30;100602.69;;;27.68;74.95
74905;BME280;63465;50.862;6.220;2023-08-21T12:56:56;100595.22;;;27.70;68.69
74905;BME280;63465;50.862;6.220;2023-08-21T12:59:21;100603.00;;;28.00;70.95
74905;BME280;63465;50.862;6.220;2023-08-21T13:01:47;100595.56;;;27.75;71.36